Strathcarron, United Kingdom
Current Conditions -  °F | °C
As of 4:50 PM on Tuesday 27 Jan 2015 (Local Time) from EGPL Reporting Station
Rain Showers Rain Showers  
Wind Chill:   Ceiling: 1000
Heat Index:   Visibility: 5mi
Dew Point:   Wind: 20mph
Humidity: 93%   Direction: 220°SW
Pressure: 29.83"   Gusts: NA
Location:  57.41°N, 5.81°W
Report Text: EGPL 271650Z 22017KT 8000 VCSH FEW004 SCT006 BKN010 08/07 Q1010
Loading
Personal Weather Stations






























Interactive Weather Map New forecast layout! Learn more

10-Day Weather Forecast

Advertisements
Track Severe Weather on mobile